Airfield :







YOU CAN JOIN US ON...

 
LOGIN :

Register | Disclaimer

   EN    FR    IT 

 









Legend :    VFR   Marginal VFR   IFR   Intensive IFR   Very Intensive IFR
Visi :
Ceiling :
>= 8 km
>= 3000ft
5 to 8 km
1000 to 3000 ft
1500m to 5 km
500 to 1000 ft
800 to 1500m
200 to 500 ft
< 800m
< 200 ft
Symbols :   Thunderstorms  Fog  Heavy snow  Heavy precipitations  Wind > 20 kt






- Airport Elevation : 488 ft
- IATA code : EEN


KEEN - Dillant Hopkins

CURRENT METAR :
  • 120956Z AUTO 15009G16KT 7SM -RA OVC020 16/14 A2955 RMK AO2 SLP009 P0007 T01560139 $

EXPIRED METARs :
  • 120930Z AUTO VRB03KT 6SM RA BR FEW012 BKN024 OVC030 15/14 A2957 RMK AO2 P0005 $
  • 120856Z AUTO VRB05KT 5SM -RA BR FEW020 BKN035 OVC048 14/13 A2959 RMK AO2 SLP024 P0022 60023 T01440133 58055 $
  • 120813Z AUTO VRB03KT 7SM RA FEW009 BKN034 OVC044 14/13 A2963 RMK AO2 P0004 $
  • 120756Z AUTO VRB03KT 10SM -RA BKN011 OVC027 13/12 A2964 RMK AO2 SLP042 P0000 T01330122 $
  • 120739Z AUTO VRB04KT 10SM -RA BKN011 BKN022 OVC027 13/12 A2966 RMK AO2 CIG 009V014 P0000 $
  • 120713Z AUTO VRB04KT 9SM -RA SCT011 BKN016 OVC025 13/12 A2968 RMK AO2 P0000 $
  • 120656Z AUTO VRB03KT 9SM -RA BKN013 OVC018 12/12 A2971 RMK AO2 RAB07 SLP065 P0001 T01220117 $
  • 120635Z AUTO 23007KT 10SM -RA BKN011 OVC018 12/11 A2973 RMK AO2 RAB07 P0000 $
  • 120556Z AUTO VRB04KT 10SM OVC017 12/11 A2975 RMK AO2 RAE34 SLP081 P0000 60004 T01220111 10122 20106 56037 $

TAF N/A
KZBW FIR / North America



MET'MAP, your aeronautical weather chart ! - Copyright ORBIFLY December 2007 - Disclaimer

ORBIFLY MET'MAP TEAM :

Programming & Development : Alexandra Zaïnal
Original concept : Baudouin d'Aumeries
Technical & hardware support : Manuel Goepfert
Assistance : Marc-Olivier Méhu




SOURCES & CREDITS :

   NOAA